This demonstration page uses our WeatherBlox Daily Observations layout. Learn more.

39.29038, -76.61219

Hourly Observations for July 19, 2015

Temp ( °F °C ) Dew Point ( °F °C ) Humidity (%) Winds ( mph kmh ) Pressure ( in mb ) Visibility ( mi km ) Precip ( " mm )
12:54 am 00:54 Mostly Cloudy 81 27 72 22 74 74 undefined N/A 29.91 1013 N/A 0.02 0.508
1:54 am 01:54 undefined 81 27 72 22 74 74 undefined N/A 29.88 1012 N/A 0 0
2:54 am 02:54 Clear 81 27 72 22 74 74 undefined N/A 29.88 1012 N/A 0 0
3:54 am 03:54 undefined 81 27 73 23 79 79 undefined N/A 29.85 1011 N/A 0 0
4:54 am 04:54 undefined 79 26 73 23 84 84 undefined N/A 29.88 1012 N/A 0 0
5:54 am 05:54 undefined 79 26 73 23 84 84 undefined N/A 29.88 1012 N/A 0 0
8:54 am 08:54 undefined 84 29 73 23 70 70 undefined N/A 29.88 1012 N/A 0 0
9:54 am 09:54 undefined 88 31 73 23 62 62 undefined N/A 29.88 1012 N/A 0 0
10:54 am 10:54 undefined 91 33 73 23 56 56 undefined N/A 29.88 1012 N/A 0 0
11:54 am 11:54 Partly Cloudy 91 33 72 22 52 52 undefined N/A 29.88 1012 N/A 0 0
12:54 pm 12:54 Mostly Cloudy 93 34 72 22 49 49 undefined N/A 29.85 1011 N/A 0 0
1:54 pm 13:54 Cloudy 90 32 73 23 59 59 undefined N/A 29.85 1011 N/A 0.001 0.001
2:54 pm 14:54 Mostly Sunny 93 34 73 23 53 53 undefined N/A 29.83 1010 N/A 0 0
3:54 pm 15:54 undefined 95 35 70 21 44 44 undefined N/A 29.83 1010 N/A 0 0
4:54 pm 16:54 Mostly Cloudy 97 36 70 21 42 42 undefined N/A 29.8 1009 N/A 0 0
5:54 pm 17:54 Mostly Sunny 95 35 66 19 39 39 undefined N/A 29.8 1009 N/A 0 0
6:54 pm 18:54 undefined 93 34 66 19 41 41 undefined N/A 29.8 1009 N/A 0 0
7:54 pm 19:54 Mostly Cloudy 91 33 68 20 46 46 undefined N/A 29.77 1008 N/A 0 0
8:54 pm 20:54 Clear 90 32 70 21 52 52 undefined N/A 29.77 1008 N/A 0 0
9:54 pm 21:54 Cloudy 90 32 72 22 55 55 undefined N/A 29.8 1009 N/A 0 0
10:54 pm 22:54 Mostly Clear 88 31 72 22 59 59 undefined N/A 29.8 1009 N/A 0 0
11:54 pm 23:54 undefined 88 31 72 22 59 59 undefined N/A 29.8 1009 N/A 0 0

Powered by AerisWeather